Aérodrome :
LOGIN :

S'inscrire | Disclaimer

   EN    FR    IT 

 










Légende :    VFR   VFR Marginal   IFR   IFR Intensif   IFR Très Intensif
Visi : 
Plafond : 
>= 8 km
>= 3000ft
5 à 8 km
1000 à 3000 ft
1500m à 5 km
500 à 1000 ft
800 à 1500m
200 à 500 ft
< 800m
< 200 ft
Symboles :   Orages  Brouillard  Fortes neiges  Fortes précipitations  Vent > 20 kt
SIGMETs :   Divers  Orages  Givrage  Turbulence  Onde Orograph.  Cendres Volcan.






- Altitude de l'aérodrome : 55 ft
- Code IATA : DSA


EGCN - Robin Hood Doncaster Sheffield

DERNIER METAR :
  • 272350Z 16007KT 9999 FEW011 BKN016 04/04 Q0987

METARs EXPIRÉS :
  • 272320Z 17007KT 9999 BKN012 04/04 Q0988
  • 272250Z 17006KT 9999 SCT013 SCT034 03/03 Q0988
  • 272220Z 18005KT CAVOK 03/03 Q0989
  • 272150Z 17007KT 9999 FEW041 03/03 Q0989
  • 272120Z 17007KT CAVOK 03/03 Q0990

TAF TAF EGCN
Valide du 28 à 00h jusqu'au 29 à 00h UTC


272259Z 2800/2824 17005KT 9999 FEW013 SCT020
BECMG 2800/2803 23010KT
TEMPO 2800/2804 6000 RA SHRA BKN009
PROB30
TEMPO 2804/2811 2000 SHRASN BKN004
TEMPO 2805/2824 26015G29KT



MET'MAP, la Météo Aéronautique d'un coup d'oeil ! - Copyright ORBIFLY Décembre 2007 - Disclaimer

ORBIFLY MET'MAP TEAM :

Programmation & Développement : Alexandra Zaïnal
Sur une idée originale de : Baudouin d'Aumeries
Assistance à la programmation : Marc-Olivier Méhu
Soutien technique & logistique : Manuel Goepfert

Contact : metmap@orbifly.com




SOURCES & CREDITS :

   NOAA